createdAt,value
2018-05-16T00:02:17.844Z,16.10
2018-05-16T00:04:46.061Z,16.00
2018-05-16T00:07:13.652Z,16.00
2018-05-16T00:09:41.108Z,16.10
2018-05-16T00:12:08.658Z,16.10
2018-05-16T00:14:36.108Z,16.10
2018-05-16T00:17:04.320Z,16.20
2018-05-16T00:19:31.781Z,16.10
2018-05-16T00:21:59.228Z,16.20
2018-05-16T00:24:28.292Z,16.20
2018-05-16T00:26:56.350Z,16.20
2018-05-16T00:29:23.836Z,16.20
2018-05-16T00:31:51.307Z,16.20
2018-05-16T00:34:18.760Z,16.20
2018-05-16T00:36:46.229Z,16.20
2018-05-16T00:39:13.791Z,16.30
2018-05-16T00:41:41.303Z,16.30
2018-05-16T00:44:08.768Z,16.30
2018-05-16T00:46:36.240Z,16.40
2018-05-16T00:49:03.759Z,16.40
2018-05-16T00:51:32.092Z,16.40
2018-05-16T00:53:59.540Z,16.40
2018-05-16T00:56:27.105Z,16.30
2018-05-16T00:58:55.314Z,16.40
2018-05-16T01:01:22.792Z,16.30
2018-05-16T01:03:50.254Z,16.40
2018-05-16T01:06:17.705Z,16.30
2018-05-16T01:08:45.168Z,16.30
2018-05-16T01:11:12.681Z,16.30
2018-05-16T01:13:40.144Z,16.30
2018-05-16T01:16:07.596Z,16.30
2018-05-16T01:18:35.048Z,16.30
2018-05-16T01:21:02.557Z,16.30
2018-05-16T01:23:30.007Z,16.30
2018-05-16T01:25:57.500Z,16.30
2018-05-16T01:28:24.944Z,16.40
2018-05-16T01:30:52.401Z,16.40
2018-05-16T01:33:19.864Z,16.40
2018-05-16T01:35:47.312Z,16.50
2018-05-16T01:38:15.563Z,16.50
2018-05-16T01:40:43.008Z,16.50
2018-05-16T01:43:10.457Z,16.50
2018-05-16T01:45:37.921Z,16.50
2018-05-16T01:48:06.160Z,16.40
2018-05-16T01:50:33.630Z,16.40
2018-05-16T01:53:01.076Z,16.30
2018-05-16T01:55:28.532Z,16.20
2018-05-16T01:57:56.752Z,15.90
2018-05-16T02:00:24.229Z,15.90
2018-05-16T02:02:51.811Z,15.70
2018-05-16T02:05:19.258Z,15.70
2018-05-16T02:07:46.804Z,15.40
2018-05-16T02:10:14.273Z,15.30
2018-05-16T02:12:41.784Z,15.30
2018-05-16T02:15:09.261Z,15.30
2018-05-16T02:17:36.717Z,15.30
2018-05-16T02:20:04.161Z,15.20
2018-05-16T02:22:31.628Z,15.20
2018-05-16T02:24:59.072Z,15.20
2018-05-16T02:27:27.308Z,15.20
2018-05-16T02:29:54.753Z,15.10
2018-05-16T02:32:22.205Z,15.20
2018-05-16T02:34:50.432Z,15.00
2018-05-16T02:37:17.976Z,15.00
2018-05-16T02:39:46.315Z,15.10
2018-05-16T02:42:13.777Z,15.10
2018-05-16T02:44:41.253Z,15.10
2018-05-16T02:47:08.714Z,15.00
2018-05-16T02:49:36.353Z,14.90
2018-05-16T02:52:03.925Z,14.90
2018-05-16T02:54:31.438Z,14.90
2018-05-16T02:56:59.621Z,14.90
2018-05-16T02:59:27.092Z,14.90
2018-05-16T03:01:54.540Z,14.90
2018-05-16T03:04:22.013Z,14.90
2018-05-16T03:06:49.465Z,14.90
2018-05-16T03:09:16.926Z,14.80
2018-05-16T03:11:44.393Z,14.80
2018-05-16T03:14:11.971Z,14.70
2018-05-16T03:16:39.441Z,14.70
2018-05-16T03:19:06.896Z,14.70
2018-05-16T03:21:35.140Z,14.60
2018-05-16T03:24:02.608Z,14.60
2018-05-16T03:26:30.080Z,14.60
2018-05-16T03:28:57.552Z,14.50
2018-05-16T03:31:25.005Z,14.40
2018-05-16T03:33:52.492Z,14.40
2018-05-16T03:36:19.961Z,14.30
2018-05-16T03:38:47.420Z,14.30
2018-05-16T03:41:14.893Z,14.20
2018-05-16T03:43:42.352Z,14.10
2018-05-16T03:54:27.641Z,13.90
2018-05-16T03:59:47.847Z,13.90
2018-05-16T07:08:29.583Z,19.60
2018-05-16T07:10:57.044Z,19.60
2018-05-16T07:13:24.541Z,19.70
2018-05-16T07:15:51.989Z,19.90
2018-05-16T07:18:19.448Z,19.90
2018-05-16T07:20:46.966Z,19.90
2018-05-16T07:23:15.277Z,20.60
2018-05-16T07:25:42.749Z,20.50
2018-05-16T07:28:10.258Z,20.60
2018-05-16T07:30:37.889Z,20.90
2018-05-16T07:33:05.401Z,21.10
2018-05-16T07:35:32.849Z,21.20
2018-05-16T07:38:00.309Z,21.30
2018-05-16T07:40:27.771Z,21.50
2018-05-16T07:42:55.242Z,22.00
2018-05-16T07:45:22.695Z,22.30
2018-05-16T07:47:50.940Z,22.60
2018-05-16T07:50:18.405Z,22.50
2018-05-16T07:52:45.864Z,22.50
2018-05-16T07:55:13.340Z,22.40
2018-05-16T07:57:40.804Z,22.60
2018-05-16T08:00:08.248Z,22.70
2018-05-16T08:02:35.712Z,22.70
2018-05-16T08:05:03.165Z,21.80
2018-05-16T08:07:31.409Z,21.70
2018-05-16T08:09:58.856Z,21.70
2018-05-16T08:12:26.349Z,22.10
2018-05-16T08:14:53.800Z,22.60
2018-05-16T08:17:21.265Z,22.90
2018-05-16T08:19:48.727Z,22.50
2018-05-16T08:22:16.248Z,22.60
2018-05-16T08:24:43.717Z,22.80
2018-05-16T08:27:11.180Z,22.90
2018-05-16T08:29:38.640Z,22.90
2018-05-16T08:32:06.112Z,23.20
2018-05-16T08:34:33.572Z,23.30
2018-05-16T08:37:01.050Z,23.30
2018-05-16T08:39:28.512Z,23.50
2018-05-16T08:41:55.964Z,23.80
2018-05-16T08:44:23.447Z,24.00
2018-05-16T08:46:50.929Z,23.60
2018-05-16T08:49:18.396Z,24.00
2018-05-16T08:51:45.840Z,24.20
2018-05-16T08:54:13.332Z,23.90
2018-05-16T08:56:40.795Z,24.10
2018-05-16T08:59:08.339Z,24.30
2018-05-16T09:01:36.667Z,24.00
2018-05-16T09:04:04.112Z,23.90
2018-05-16T09:06:31.575Z,23.70
2018-05-16T09:08:59.020Z,23.80
2018-05-16T09:11:27.277Z,25.00
2018-05-16T09:13:54.736Z,24.90
2018-05-16T09:16:22.304Z,25.30
2018-05-16T09:18:49.848Z,25.40
2018-05-16T09:21:17.325Z,25.40
2018-05-16T09:23:44.820Z,25.30
2018-05-16T09:26:12.368Z,25.30
2018-05-16T09:28:39.869Z,25.30
2018-05-16T09:31:07.337Z,25.20
2018-05-16T09:33:34.780Z,24.90
2018-05-16T09:36:02.237Z,24.20
2018-05-16T09:38:29.697Z,23.50
2018-05-16T09:40:57.144Z,23.10
2018-05-16T09:43:25.397Z,22.80
2018-05-16T09:45:52.911Z,22.80
2018-05-16T09:48:20.336Z,23.20
2018-05-16T09:50:47.807Z,23.30
2018-05-16T09:53:15.273Z,23.10
2018-05-16T09:55:42.748Z,23.10
2018-05-16T09:58:10.309Z,23.20
2018-05-16T10:00:37.753Z,23.20
2018-05-16T10:03:05.268Z,23.50
2018-05-16T10:05:32.790Z,23.20
2018-05-16T10:08:01.004Z,23.00
2018-05-16T10:10:28.550Z,23.00
2018-05-16T10:12:56.974Z,22.30
2018-05-16T10:15:24.453Z,22.30
2018-05-16T10:17:51.921Z,22.20
2018-05-16T10:20:19.478Z,21.80
2018-05-16T10:22:46.860Z,21.70
2018-05-16T10:25:14.428Z,21.60
2018-05-16T10:27:41.900Z,21.60
2018-05-16T10:30:09.367Z,21.50
2018-05-16T10:32:36.836Z,21.40
2018-05-16T10:35:04.288Z,21.40
2018-05-16T10:37:31.783Z,21.50
2018-05-16T10:39:59.249Z,21.70
2018-05-16T10:42:26.708Z,21.80
2018-05-16T10:44:54.197Z,21.60
2018-05-16T10:47:21.645Z,21.50
2018-05-16T10:49:49.116Z,21.30
2018-05-16T10:52:16.667Z,21.20
2018-05-16T10:54:44.373Z,21.20
2018-05-16T10:57:11.823Z,21.20
2018-05-16T10:59:39.316Z,21.40
2018-05-16T11:02:06.780Z,21.60
2018-05-16T11:04:34.253Z,21.80
2018-05-16T11:07:01.721Z,22.00
2018-05-16T11:09:29.193Z,22.10
2018-05-16T11:11:56.653Z,22.20
2018-05-16T11:14:24.110Z,22.50
2018-05-16T11:16:51.572Z,22.70
2018-05-16T11:19:19.020Z,23.10
2018-05-16T11:21:47.254Z,23.60
2018-05-16T11:24:14.701Z,23.60
2018-05-16T11:26:42.264Z,23.80
2018-05-16T11:29:10.469Z,23.80
2018-05-16T11:31:37.937Z,23.80
2018-05-16T11:34:05.381Z,23.90
2018-05-16T11:36:33.671Z,24.00
2018-05-16T11:39:01.068Z,24.00
2018-05-16T11:41:28.621Z,23.70
2018-05-16T11:43:56.470Z,23.20
2018-05-16T11:46:23.581Z,22.70
2018-05-16T11:48:51.120Z,22.40
2018-05-16T11:51:18.524Z,22.40
2018-05-16T11:53:45.989Z,22.60
2018-05-16T11:56:13.480Z,22.90
2018-05-16T11:58:41.044Z,23.20
2018-05-16T12:01:08.485Z,23.70
2018-05-16T12:03:36.055Z,23.80
2018-05-16T12:06:03.501Z,24.20
2018-05-16T12:08:31.812Z,24.00
2018-05-16T12:11:00.041Z,24.20
2018-05-16T12:13:27.509Z,24.20
2018-05-16T12:15:55.046Z,24.80
2018-05-16T12:18:22.559Z,25.00
2018-05-16T12:20:50.012Z,25.00
2018-05-16T12:23:17.466Z,24.90
2018-05-16T12:25:45.012Z,24.80
2018-05-16T12:28:12.401Z,24.60
2018-05-16T12:30:39.860Z,24.10
2018-05-16T12:33:07.370Z,23.70
2018-05-16T12:35:34.845Z,23.30
2018-05-16T12:38:02.292Z,23.10
2018-05-16T12:40:29.776Z,22.90
2018-05-16T12:43:09.116Z,22.50
2018-05-16T12:45:36.586Z,22.30
2018-05-16T12:48:04.040Z,22.40
2018-05-16T12:50:31.500Z,22.30
2018-05-16T12:52:58.949Z,22.10
2018-05-16T12:55:27.180Z,21.60
2018-05-16T12:57:54.632Z,21.50
2018-05-16T13:00:22.085Z,21.30
2018-05-16T13:02:50.317Z,20.90
2018-05-16T13:05:17.769Z,20.90
2018-05-16T13:07:45.262Z,20.60
2018-05-16T13:10:12.705Z,20.50
2018-05-16T13:12:40.267Z,20.30
2018-05-16T13:15:07.836Z,20.30
2018-05-16T13:17:35.413Z,20.20
2018-05-16T13:20:02.880Z,20.20
2018-05-16T13:22:30.348Z,20.10
2018-05-16T13:24:57.857Z,20.10
2018-05-16T13:27:25.313Z,20.00
2018-05-16T13:29:52.776Z,20.00
2018-05-16T13:32:20.330Z,20.00
2018-05-16T13:34:47.768Z,20.10
2018-05-16T13:37:16.004Z,20.00
2018-05-16T13:39:43.461Z,20.00
2018-05-16T13:42:10.921Z,19.90
2018-05-16T13:44:38.376Z,19.90
2018-05-16T13:47:06.593Z,19.60
2018-05-16T13:49:34.052Z,19.60
2018-05-16T13:52:01.560Z,19.50
2018-05-16T13:54:29.029Z,19.40
2018-05-16T13:56:56.477Z,19.40
2018-05-16T13:59:23.941Z,19.40
2018-05-16T14:01:51.388Z,19.40
2018-05-16T14:04:19.616Z,19.40
2018-05-16T14:06:47.100Z,19.40
2018-05-16T14:09:14.628Z,19.40
2018-05-16T14:11:42.103Z,19.50
2018-05-16T14:14:09.617Z,19.60
2018-05-16T14:16:37.071Z,19.70
2018-05-16T14:19:04.533Z,19.80
2018-05-16T14:21:31.981Z,19.80
2018-05-16T14:23:59.488Z,19.80
2018-05-16T14:26:26.948Z,19.80
2018-05-16T14:28:54.428Z,19.80
2018-05-16T14:31:21.889Z,19.70
2018-05-16T14:33:49.456Z,19.70
2018-05-16T14:36:16.936Z,19.80
2018-05-16T14:38:44.385Z,19.90
2018-05-16T14:41:11.852Z,20.20
2018-05-16T14:43:39.297Z,20.70
2018-05-16T14:46:07.525Z,21.10
2018-05-16T14:48:35.086Z,21.10
2018-05-16T14:51:02.463Z,21.10
2018-05-16T14:53:30.015Z,21.20
2018-05-16T14:55:57.478Z,21.20
2018-05-16T14:58:25.684Z,21.30
2018-05-16T15:00:53.156Z,21.20
2018-05-16T15:03:20.645Z,21.20
2018-05-16T15:05:48.097Z,21.20
2018-05-16T15:08:15.584Z,21.20
2018-05-16T15:10:43.052Z,21.40
2018-05-16T15:13:10.635Z,21.50
2018-05-16T15:15:38.098Z,21.70
2018-05-16T15:18:05.664Z,21.90
2018-05-16T15:20:33.142Z,22.10
2018-05-16T15:23:00.621Z,22.30
2018-05-16T15:25:28.064Z,22.50
2018-05-16T15:27:55.557Z,22.80
2018-05-16T15:30:23.012Z,22.80
2018-05-16T15:32:50.484Z,22.70
2018-05-16T15:35:17.952Z,22.60
2018-05-16T15:37:45.427Z,22.50
2018-05-16T15:40:12.959Z,22.50
2018-05-16T15:42:40.551Z,22.50
2018-05-16T15:45:08.040Z,22.50
2018-05-16T15:47:35.492Z,22.40
2018-05-16T15:50:02.978Z,22.10
2018-05-16T15:52:30.431Z,21.80
2018-05-16T15:54:57.889Z,21.60
2018-05-16T15:57:25.353Z,21.40
2018-05-16T15:59:52.804Z,21.30
2018-05-16T16:02:21.040Z,21.00
2018-05-16T16:04:48.521Z,21.00
2018-05-16T16:07:15.976Z,20.90
2018-05-16T16:09:43.457Z,20.80
2018-05-16T16:12:10.913Z,20.70
2018-05-16T16:14:38.373Z,20.70
2018-05-16T16:17:05.825Z,20.60
2018-05-16T16:19:33.293Z,20.50
2018-05-16T16:22:00.749Z,20.30
2018-05-16T16:24:28.993Z,20.10
2018-05-16T16:26:56.452Z,20.00
2018-05-16T16:29:23.906Z,20.00
2018-05-16T16:31:51.981Z,19.90
2018-05-16T16:34:19.553Z,19.80
2018-05-16T16:36:47.019Z,19.70
2018-05-16T16:39:15.309Z,19.60
2018-05-16T16:41:42.690Z,19.60
2018-05-16T16:44:11.683Z,19.50
2018-05-16T16:46:39.158Z,19.20
2018-05-16T16:49:06.726Z,18.90
2018-05-16T16:51:34.232Z,18.60
2018-05-16T16:54:01.706Z,18.40
2018-05-16T16:56:29.238Z,18.20
2018-05-16T16:58:57.460Z,17.80
2018-05-16T17:42:40.184Z,16.30
2018-05-16T17:45:07.654Z,16.30
2018-05-16T17:47:35.100Z,16.20
2018-05-16T17:50:30.416Z,16.00
2018-05-16T17:52:57.860Z,16.00
2018-05-16T17:55:26.090Z,15.80
2018-05-16T17:57:53.942Z,15.80
2018-05-16T18:00:21.409Z,15.80
2018-05-16T18:33:29.128Z,15.70
2018-05-16T18:35:56.719Z,15.70
2018-05-16T18:38:24.168Z,15.70
2018-05-16T18:40:51.652Z,15.70
2018-05-16T18:43:19.113Z,15.90
2018-05-16T18:45:46.668Z,15.90
2018-05-16T18:48:14.176Z,16.00
2018-05-16T18:50:42.491Z,15.90
2018-05-16T18:53:09.979Z,15.90
2018-05-16T18:55:37.432Z,15.90
2018-05-16T18:58:04.917Z,15.90
2018-05-16T19:00:32.413Z,15.90
2018-05-16T19:02:59.888Z,15.90
2018-05-16T19:05:27.345Z,16.00
2018-05-16T19:07:54.813Z,16.10
2018-05-16T19:10:22.284Z,16.10
2018-05-16T19:13:20.133Z,16.10
2018-05-16T19:15:47.644Z,16.00
2018-05-16T19:18:15.129Z,16.00
2018-05-16T19:20:42.584Z,15.90
2018-05-16T19:23:10.060Z,15.90
2018-05-16T19:25:37.524Z,15.80
2018-05-16T19:28:04.984Z,15.80
2018-05-16T19:30:32.447Z,15.80
2018-05-16T19:32:59.913Z,15.70
2018-05-16T19:35:27.427Z,15.70
2018-05-16T19:37:54.917Z,15.70
2018-05-16T19:40:23.137Z,15.60
2018-05-16T19:42:50.609Z,15.50
2018-05-16T19:45:18.089Z,15.50
2018-05-16T19:47:45.540Z,15.60
2018-05-16T19:50:13.009Z,15.60
2018-05-16T19:52:40.574Z,15.60
2018-05-16T19:55:08.804Z,15.60
2018-05-16T19:57:36.268Z,15.60
2018-05-16T20:00:03.740Z,15.60
2018-05-16T20:02:31.196Z,15.60
2018-05-16T20:04:58.669Z,15.50
2018-05-16T20:07:26.121Z,15.50
2018-05-16T20:09:53.591Z,15.40
2018-05-16T20:12:21.052Z,15.40
2018-05-16T20:14:48.536Z,15.40
2018-05-16T20:17:15.992Z,15.30
2018-05-16T20:19:43.472Z,15.30
2018-05-16T20:22:10.932Z,15.30
2018-05-16T20:24:38.394Z,15.30
2018-05-16T20:27:05.870Z,15.30
2018-05-16T20:29:33.323Z,15.30
2018-05-16T20:32:01.564Z,15.30
2018-05-16T20:34:29.025Z,15.30
2018-05-16T20:36:56.813Z,15.30
2018-05-16T20:39:24.450Z,15.30
2018-05-16T20:41:52.180Z,15.40
2018-05-16T20:44:20.581Z,15.40
2018-05-16T20:46:48.164Z,15.30
2018-05-16T20:49:16.683Z,15.30
2018-05-16T20:51:44.538Z,15.30
2018-05-16T20:54:12.902Z,15.20
2018-05-16T20:56:41.196Z,15.20
2018-05-16T20:59:08.761Z,15.20
2018-05-16T21:01:36.387Z,15.30
2018-05-16T21:04:04.072Z,15.30
2018-05-16T21:06:31.524Z,15.20
2018-05-16T21:08:58.989Z,15.20
2018-05-16T21:11:26.462Z,15.20
2018-05-16T21:13:54.800Z,15.20
2018-05-16T21:16:22.262Z,15.10
2018-05-16T21:18:49.728Z,15.20
2018-05-16T21:21:17.274Z,15.10
2018-05-16T21:23:45.609Z,15.20
2018-05-16T21:26:13.065Z,15.10
2018-05-16T21:28:40.628Z,15.20
2018-05-16T21:31:08.018Z,15.20
2018-05-16T21:33:35.587Z,15.20
2018-05-16T21:36:03.045Z,15.20
2018-05-16T21:38:30.513Z,15.20
2018-05-16T21:40:57.970Z,15.10
2018-05-16T21:43:25.436Z,15.10
2018-05-16T21:45:53.017Z,15.00
2018-05-16T21:48:20.487Z,15.00
2018-05-16T21:50:47.949Z,15.00
2018-05-16T21:53:15.449Z,14.90
2018-05-16T21:55:43.001Z,14.90
2018-05-16T21:58:10.663Z,14.80
2018-05-16T22:00:38.338Z,14.80
2018-05-16T22:03:05.994Z,14.70
2018-05-16T22:05:34.437Z,14.70
2018-05-16T22:08:02.192Z,14.70
2018-05-16T22:10:29.689Z,14.70
2018-05-16T22:12:57.180Z,14.70
2018-05-16T22:15:26.157Z,14.50
2018-05-16T22:17:53.616Z,14.50
2018-05-16T22:20:21.104Z,14.50
2018-05-16T22:22:48.577Z,14.50
2018-05-16T22:25:16.037Z,14.40
2018-05-16T22:27:43.612Z,14.30
2018-05-16T22:30:10.581Z,14.30
2018-05-16T22:32:43.893Z,14.30
2018-05-16T22:35:17.165Z,14.30
2018-05-16T22:37:50.477Z,14.20
2018-05-16T22:40:23.772Z,14.10
2018-05-16T22:42:50.802Z,14.00
2018-05-16T22:45:32.952Z,14.00
2018-05-16T22:48:00.424Z,13.90
2018-05-16T22:50:27.915Z,13.80
2018-05-16T22:52:55.443Z,13.80
2018-05-16T22:55:22.900Z,13.70
2018-05-16T22:57:51.149Z,13.60
2018-05-16T23:00:20.409Z,13.60
2018-05-16T23:02:47.924Z,13.50
2018-05-16T23:05:15.392Z,13.40
2018-05-16T23:07:42.868Z,13.30
2018-05-16T23:10:10.329Z,13.20
2018-05-16T23:12:37.903Z,13.10
2018-05-16T23:15:05.364Z,13.00
2018-05-16T23:17:32.844Z,13.00
2018-05-16T23:20:00.376Z,13.00
2018-05-16T23:22:28.600Z,12.90
2018-05-16T23:24:56.073Z,12.80
2018-05-16T23:27:23.541Z,12.80
2018-05-16T23:29:51.001Z,12.80
2018-05-16T23:32:18.488Z,12.80
2018-05-16T23:34:46.021Z,12.70
2018-05-16T23:37:13.416Z,12.70
2018-05-16T23:39:40.868Z,12.70
2018-05-16T23:42:08.328Z,12.70
2018-05-16T23:44:35.836Z,12.70
2018-05-16T23:47:03.288Z,12.70
2018-05-16T23:49:30.756Z,12.70
2018-05-16T23:51:58.216Z,12.60
2018-05-16T23:54:25.661Z,12.60
2018-05-16T23:56:53.895Z,12.60
2018-05-16T23:59:21.344Z,12.60
